Terminal Aerodrome Forecast
Issued by NWS Portland, OR

Home | Current Version | Previous Version | Text Only | Print | Product List | Glossary On
Versions: 1 2 3 4 5 6 7 8 9 10 11 12 13 14 15 16 17 18 19 20 21 22 23 24 25 26 27 28 29 30
321
FTUS46 KPQR 210520
TAFTTD
TAF
KTTD 210520Z 2106/2206 16007KT P6SM VCSH OVC070
     FM211300 11010G17KT 5SM -RA SCT025 OVC040
     FM211500 11014G21KT 5SM -RA BR OVC025
     FM212000 18010G18KT 2SM -RA BR OVC015
     FM220300 22014G22KT 6SM -RA OVC050=

USA.gov is the U.S. government's official web portal to all federal, state and local government web resources and services.